sensor_id;sensor_type;location;lat;lon;timestamp;P1;durP1;ratioP1;P2;durP2;ratioP2
24030;SDS011;12240;51.142;22.486;2022-08-05T00:01:52;19.95;;;6.82;;
24030;SDS011;12240;51.142;22.486;2022-08-05T00:04:20;19.40;;;6.20;;
24030;SDS011;12240;51.142;22.486;2022-08-05T00:06:48;13.38;;;6.30;;
24030;SDS011;12240;51.142;22.486;2022-08-05T00:09:17;14.80;;;6.05;;
24030;SDS011;12240;51.142;22.486;2022-08-05T00:11:47;13.30;;;5.75;;
24030;SDS011;12240;51.142;22.486;2022-08-05T00:14:26;9.75;;;6.20;;
24030;SDS011;12240;51.142;22.486;2022-08-05T00:16:57;12.98;;;5.78;;
24030;SDS011;12240;51.142;22.486;2022-08-05T00:22:00;13.48;;;6.35;;
24030;SDS011;12240;51.142;22.486;2022-08-05T00:24:30;13.23;;;6.43;;
24030;SDS011;12240;51.142;22.486;2022-08-05T00:26:59;11.13;;;6.43;;
24030;SDS011;12240;51.142;22.486;2022-08-05T00:29:36;13.13;;;6.90;;
24030;SDS011;12240;51.142;22.486;2022-08-05T00:32:04;15.73;;;6.40;;
24030;SDS011;12240;51.142;22.486;2022-08-05T00:34:39;8.23;;;5.80;;
24030;SDS011;12240;51.142;22.486;2022-08-05T00:37:30;9.80;;;6.05;;
24030;SDS011;12240;51.142;22.486;2022-08-05T00:40:19;19.83;;;5.95;;
24030;SDS011;12240;51.142;22.486;2022-08-05T00:42:55;13.27;;;6.50;;
24030;SDS011;12240;51.142;22.486;2022-08-05T00:45:26;9.50;;;6.55;;
24030;SDS011;12240;51.142;22.486;2022-08-05T00:48:10;17.52;;;6.80;;
24030;SDS011;12240;51.142;22.486;2022-08-05T00:50:53;14.77;;;6.72;;
24030;SDS011;12240;51.142;22.486;2022-08-05T00:53:22;12.65;;;6.13;;
24030;SDS011;12240;51.142;22.486;2022-08-05T00:56:10;12.55;;;6.15;;
24030;SDS011;12240;51.142;22.486;2022-08-05T00:58:43;10.80;;;6.22;;
24030;SDS011;12240;51.142;22.486;2022-08-05T01:01:13;12.43;;;5.68;;
24030;SDS011;12240;51.142;22.486;2022-08-05T01:04:02;13.82;;;5.80;;
24030;SDS011;12240;51.142;22.486;2022-08-05T01:06:39;10.43;;;5.50;;
24030;SDS011;12240;51.142;22.486;2022-08-05T01:09:14;7.75;;;5.28;;
24030;SDS011;12240;51.142;22.486;2022-08-05T01:11:47;9.80;;;5.53;;
24030;SDS011;12240;51.142;22.486;2022-08-05T01:14:46;12.02;;;5.65;;
24030;SDS011;12240;51.142;22.486;2022-08-05T01:17:31;10.77;;;6.00;;
24030;SDS011;12240;51.142;22.486;2022-08-05T01:22:58;8.80;;;6.13;;
24030;SDS011;12240;51.142;22.486;2022-08-05T01:31:00;13.50;;;5.93;;
24030;SDS011;12240;51.142;22.486;2022-08-05T01:33:59;13.20;;;6.43;;
24030;SDS011;12240;51.142;22.486;2022-08-05T01:36:54;15.80;;;5.72;;
24030;SDS011;12240;51.142;22.486;2022-08-05T01:39:51;11.70;;;5.90;;
24030;SDS011;12240;51.142;22.486;2022-08-05T01:42:25;9.90;;;6.20;;
24030;SDS011;12240;51.142;22.486;2022-08-05T01:44:58;11.52;;;6.75;;
24030;SDS011;12240;51.142;22.486;2022-08-05T01:47:29;11.85;;;6.90;;
24030;SDS011;12240;51.142;22.486;2022-08-05T01:50:14;10.85;;;6.13;;
24030;SDS011;12240;51.142;22.486;2022-08-05T01:52:57;15.32;;;6.57;;
24030;SDS011;12240;51.142;22.486;2022-08-05T01:55:30;12.95;;;5.82;;
24030;SDS011;12240;51.142;22.486;2022-08-05T01:58:03;13.80;;;6.32;;
24030;SDS011;12240;51.142;22.486;2022-08-05T02:00:53;9.88;;;5.65;;
24030;SDS011;12240;51.142;22.486;2022-08-05T02:03:33;10.07;;;5.93;;
24030;SDS011;12240;51.142;22.486;2022-08-05T02:06:06;9.85;;;5.78;;
24030;SDS011;12240;51.142;22.486;2022-08-05T02:08:55;11.23;;;5.75;;
24030;SDS011;12240;51.142;22.486;2022-08-05T02:11:25;12.70;;;6.18;;
24030;SDS011;12240;51.142;22.486;2022-08-05T02:14:11;14.35;;;5.65;;
24030;SDS011;12240;51.142;22.486;2022-08-05T02:17:16;9.98;;;5.63;;
24030;SDS011;12240;51.142;22.486;2022-08-05T02:20:17;12.75;;;5.72;;
24030;SDS011;12240;51.142;22.486;2022-08-05T02:22:54;10.90;;;5.60;;
24030;SDS011;12240;51.142;22.486;2022-08-05T02:25:29;9.60;;;5.38;;
24030;SDS011;12240;51.142;22.486;2022-08-05T02:28:23;8.90;;;5.20;;
24030;SDS011;12240;51.142;22.486;2022-08-05T02:31:04;7.10;;;4.40;;
24030;SDS011;12240;51.142;22.486;2022-08-05T02:33:48;8.95;;;5.88;;
24030;SDS011;12240;51.142;22.486;2022-08-05T02:36:24;10.05;;;5.70;;
24030;SDS011;12240;51.142;22.486;2022-08-05T02:38:58;8.73;;;5.45;;
24030;SDS011;12240;51.142;22.486;2022-08-05T02:41:29;10.15;;;4.97;;
24030;SDS011;12240;51.142;22.486;2022-08-05T02:44:18;9.48;;;4.55;;
24030;SDS011;12240;51.142;22.486;2022-08-05T02:46:50;12.20;;;5.30;;
24030;SDS011;12240;51.142;22.486;2022-08-05T02:49:30;10.30;;;4.88;;
24030;SDS011;12240;51.142;22.486;2022-08-05T02:52:13;8.48;;;5.30;;
24030;SDS011;12240;51.142;22.486;2022-08-05T02:54:56;9.82;;;5.07;;
24030;SDS011;12240;51.142;22.486;2022-08-05T02:57:32;10.57;;;4.85;;
24030;SDS011;12240;51.142;22.486;2022-08-05T03:00:21;6.88;;;4.78;;
24030;SDS011;12240;51.142;22.486;2022-08-05T03:02:52;8.57;;;4.15;;
24030;SDS011;12240;51.142;22.486;2022-08-05T03:05:23;7.87;;;4.40;;
24030;SDS011;12240;51.142;22.486;2022-08-05T03:08:12;8.27;;;4.20;;
24030;SDS011;12240;51.142;22.486;2022-08-05T03:10:43;14.90;;;4.38;;
24030;SDS011;12240;51.142;22.486;2022-08-05T03:13:31;10.00;;;4.68;;
24030;SDS011;12240;51.142;22.486;2022-08-05T03:16:19;8.73;;;4.70;;
24030;SDS011;12240;51.142;22.486;2022-08-05T03:18:48;11.98;;;5.13;;
24030;SDS011;12240;51.142;22.486;2022-08-05T03:21:18;7.97;;;4.93;;
24030;SDS011;12240;51.142;22.486;2022-08-05T03:23:47;8.52;;;4.65;;
24030;SDS011;12240;51.142;22.486;2022-08-05T03:26:16;9.07;;;4.80;;
24030;SDS011;12240;51.142;22.486;2022-08-05T03:28:58;6.80;;;4.22;;
24030;SDS011;12240;51.142;22.486;2022-08-05T03:31:27;8.52;;;4.35;;
24030;SDS011;12240;51.142;22.486;2022-08-05T03:34:17;10.98;;;5.18;;
24030;SDS011;12240;51.142;22.486;2022-08-05T03:36:50;7.15;;;4.95;;
24030;SDS011;12240;51.142;22.486;2022-08-05T03:39:18;7.93;;;4.47;;
24030;SDS011;12240;51.142;22.486;2022-08-05T03:41:53;10.98;;;5.28;;
24030;SDS011;12240;51.142;22.486;2022-08-05T03:44:23;8.90;;;4.93;;
24030;SDS011;12240;51.142;22.486;2022-08-05T03:46:55;17.23;;;6.60;;
24030;SDS011;12240;51.142;22.486;2022-08-05T03:49:23;8.95;;;4.68;;
24030;SDS011;12240;51.142;22.486;2022-08-05T03:52:11;13.80;;;5.22;;
24030;SDS011;12240;51.142;22.486;2022-08-05T03:55:16;10.52;;;6.32;;
24030;SDS011;12240;51.142;22.486;2022-08-05T03:58:13;10.88;;;5.72;;
24030;SDS011;12240;51.142;22.486;2022-08-05T04:00:45;9.57;;;5.63;;
24030;SDS011;12240;51.142;22.486;2022-08-05T04:03:19;12.80;;;6.40;;
24030;SDS011;12240;51.142;22.486;2022-08-05T04:05:54;10.05;;;5.88;;
24030;SDS011;12240;51.142;22.486;2022-08-05T04:08:25;9.83;;;5.87;;
24030;SDS011;12240;51.142;22.486;2022-08-05T04:11:03;11.85;;;6.05;;
24030;SDS011;12240;51.142;22.486;2022-08-05T04:13:39;11.88;;;5.82;;
24030;SDS011;12240;51.142;22.486;2022-08-05T04:16:17;10.55;;;5.40;;
24030;SDS011;12240;51.142;22.486;2022-08-05T04:18:51;12.18;;;5.60;;
24030;SDS011;12240;51.142;22.486;2022-08-05T04:21:23;8.80;;;6.05;;
24030;SDS011;12240;51.142;22.486;2022-08-05T04:24:12;14.55;;;5.85;;
24030;SDS011;12240;51.142;22.486;2022-08-05T04:26:48;12.02;;;5.70;;
24030;SDS011;12240;51.142;22.486;2022-08-05T04:29:17;12.38;;;5.60;;
24030;SDS011;12240;51.142;22.486;2022-08-05T04:31:45;10.48;;;5.68;;
24030;SDS011;12240;51.142;22.486;2022-08-05T04:34:15;13.50;;;5.50;;
24030;SDS011;12240;51.142;22.486;2022-08-05T04:37:01;8.48;;;5.82;;
24030;SDS011;12240;51.142;22.486;2022-08-05T04:39:32;8.65;;;4.90;;
24030;SDS011;12240;51.142;22.486;2022-08-05T04:42:01;9.48;;;4.88;;
24030;SDS011;12240;51.142;22.486;2022-08-05T04:44:32;7.63;;;4.68;;
24030;SDS011;12240;51.142;22.486;2022-08-05T04:47:01;9.90;;;4.90;;
24030;SDS011;12240;51.142;22.486;2022-08-05T04:49:35;5.93;;;4.38;;
24030;SDS011;12240;51.142;22.486;2022-08-05T04:52:25;8.80;;;4.38;;
24030;SDS011;12240;51.142;22.486;2022-08-05T04:54:54;11.80;;;4.68;;
24030;SDS011;12240;51.142;22.486;2022-08-05T04:57:25;6.32;;;4.47;;
24030;SDS011;12240;51.142;22.486;2022-08-05T04:59:56;8.95;;;4.20;;
24030;SDS011;12240;51.142;22.486;2022-08-05T05:02:25;10.32;;;4.28;;
24030;SDS011;12240;51.142;22.486;2022-08-05T05:05:08;8.70;;;3.97;;
24030;SDS011;12240;51.142;22.486;2022-08-05T05:07:53;9.05;;;3.95;;
24030;SDS011;12240;51.142;22.486;2022-08-05T05:10:29;8.57;;;4.05;;
24030;SDS011;12240;51.142;22.486;2022-08-05T05:12:59;7.93;;;4.07;;
24030;SDS011;12240;51.142;22.486;2022-08-05T05:15:30;5.75;;;4.20;;
24030;SDS011;12240;51.142;22.486;2022-08-05T05:18:19;6.53;;;3.78;;
24030;SDS011;12240;51.142;22.486;2022-08-05T05:20:59;8.43;;;3.70;;
24030;SDS011;12240;51.142;22.486;2022-08-05T05:23:31;7.78;;;4.07;;
24030;SDS011;12240;51.142;22.486;2022-08-05T05:26:19;5.13;;;3.80;;
24030;SDS011;12240;51.142;22.486;2022-08-05T05:28:58;7.30;;;3.88;;
24030;SDS011;12240;51.142;22.486;2022-08-05T05:31:28;5.72;;;3.72;;
24030;SDS011;12240;51.142;22.486;2022-08-05T05:33:56;5.93;;;3.92;;
24030;SDS011;12240;51.142;22.486;2022-08-05T05:36:29;8.68;;;3.67;;
24030;SDS011;12240;51.142;22.486;2022-08-05T05:39:01;5.00;;;3.30;;
24030;SDS011;12240;51.142;22.486;2022-08-05T05:41:30;4.47;;;3.60;;
24030;SDS011;12240;51.142;22.486;2022-08-05T05:44:07;4.03;;;2.97;;
24030;SDS011;12240;51.142;22.486;2022-08-05T05:46:56;5.07;;;3.10;;
24030;SDS011;12240;51.142;22.486;2022-08-05T05:49:30;6.28;;;3.20;;
24030;SDS011;12240;51.142;22.486;2022-08-05T05:51:59;4.00;;;3.20;;
24030;SDS011;12240;51.142;22.486;2022-08-05T05:54:33;5.40;;;3.78;;
24030;SDS011;12240;51.142;22.486;2022-08-05T05:57:17;6.05;;;3.20;;
24030;SDS011;12240;51.142;22.486;2022-08-05T05:59:46;4.72;;;3.15;;
24030;SDS011;12240;51.142;22.486;2022-08-05T06:02:15;8.40;;;3.15;;
24030;SDS011;12240;51.142;22.486;2022-08-05T06:05:03;3.88;;;3.40;;
24030;SDS011;12240;51.142;22.486;2022-08-05T06:07:42;6.47;;;2.90;;
24030;SDS011;12240;51.142;22.486;2022-08-05T06:10:28;6.65;;;2.97;;
24030;SDS011;12240;51.142;22.486;2022-08-05T06:13:03;10.30;;;2.97;;
24030;SDS011;12240;51.142;22.486;2022-08-05T06:15:31;5.43;;;2.83;;
24030;SDS011;12240;51.142;22.486;2022-08-05T06:18:21;7.25;;;3.20;;
24030;SDS011;12240;51.142;22.486;2022-08-05T06:20:57;6.35;;;3.30;;
24030;SDS011;12240;51.142;22.486;2022-08-05T06:23:26;5.47;;;3.13;;
24030;SDS011;12240;51.142;22.486;2022-08-05T06:26:10;5.20;;;3.05;;
24030;SDS011;12240;51.142;22.486;2022-08-05T06:28:47;8.25;;;3.00;;
24030;SDS011;12240;51.142;22.486;2022-08-05T06:31:16;5.32;;;3.28;;
24030;SDS011;12240;51.142;22.486;2022-08-05T06:33:49;4.97;;;2.90;;
24030;SDS011;12240;51.142;22.486;2022-08-05T06:36:35;5.38;;;2.70;;
24030;SDS011;12240;51.142;22.486;2022-08-05T06:39:23;3.97;;;2.83;;
24030;SDS011;12240;51.142;22.486;2022-08-05T06:41:54;4.88;;;3.13;;
24030;SDS011;12240;51.142;22.486;2022-08-05T06:44:30;8.63;;;3.13;;
24030;SDS011;12240;51.142;22.486;2022-08-05T06:46:58;4.78;;;2.60;;
24030;SDS011;12240;51.142;22.486;2022-08-05T06:49:29;10.68;;;3.15;;
24030;SDS011;12240;51.142;22.486;2022-08-05T06:52:17;5.07;;;2.97;;
24030;SDS011;12240;51.142;22.486;2022-08-05T06:55:04;4.60;;;3.10;;
24030;SDS011;12240;51.142;22.486;2022-08-05T06:57:33;5.70;;;2.97;;
24030;SDS011;12240;51.142;22.486;2022-08-05T07:00:22;6.95;;;3.00;;
24030;SDS011;12240;51.142;22.486;2022-08-05T07:02:51;6.45;;;3.03;;
24030;SDS011;12240;51.142;22.486;2022-08-05T07:05:22;5.75;;;2.80;;
24030;SDS011;12240;51.142;22.486;2022-08-05T07:08:04;4.72;;;3.03;;
24030;SDS011;12240;51.142;22.486;2022-08-05T07:10:37;4.38;;;3.08;;
24030;SDS011;12240;51.142;22.486;2022-08-05T07:13:23;5.38;;;2.70;;
24030;SDS011;12240;51.142;22.486;2022-08-05T07:16:26;7.95;;;3.00;;
24030;SDS011;12240;51.142;22.486;2022-08-05T07:19:34;5.07;;;3.40;;
24030;SDS011;12240;51.142;22.486;2022-08-05T07:22:22;5.00;;;2.70;;
24030;SDS011;12240;51.142;22.486;2022-08-05T07:24:56;6.53;;;3.25;;
24030;SDS011;12240;51.142;22.486;2022-08-05T07:27:46;5.72;;;3.08;;
24030;SDS011;12240;51.142;22.486;2022-08-05T07:30:26;6.97;;;3.43;;
24030;SDS011;12240;51.142;22.486;2022-08-05T07:33:00;6.75;;;3.58;;
24030;SDS011;12240;51.142;22.486;2022-08-05T07:35:35;5.20;;;3.03;;
24030;SDS011;12240;51.142;22.486;2022-08-05T07:38:25;4.07;;;3.33;;
24030;SDS011;12240;51.142;22.486;2022-08-05T07:41:05;6.40;;;3.63;;
24030;SDS011;12240;51.142;22.486;2022-08-05T07:43:57;6.43;;;3.25;;
24030;SDS011;12240;51.142;22.486;2022-08-05T07:46:26;5.47;;;3.63;;
24030;SDS011;12240;51.142;22.486;2022-08-05T07:48:57;4.65;;;3.67;;
24030;SDS011;12240;51.142;22.486;2022-08-05T07:51:32;4.68;;;3.63;;
24030;SDS011;12240;51.142;22.486;2022-08-05T07:54:19;7.28;;;3.58;;
24030;SDS011;12240;51.142;22.486;2022-08-05T07:57:00;6.35;;;3.83;;
24030;SDS011;12240;51.142;22.486;2022-08-05T07:59:49;7.85;;;3.88;;
24030;SDS011;12240;51.142;22.486;2022-08-05T08:02:21;6.13;;;3.75;;
24030;SDS011;12240;51.142;22.486;2022-08-05T08:05:14;6.78;;;3.78;;
24030;SDS011;12240;51.142;22.486;2022-08-05T08:07:43;5.33;;;3.10;;
24030;SDS011;12240;51.142;22.486;2022-08-05T08:10:26;7.57;;;4.03;;
24030;SDS011;12240;51.142;22.486;2022-08-05T08:12:57;5.50;;;3.20;;
24030;SDS011;12240;51.142;22.486;2022-08-05T08:15:27;6.55;;;3.70;;
24030;SDS011;12240;51.142;22.486;2022-08-05T08:18:17;8.52;;;3.63;;
24030;SDS011;12240;51.142;22.486;2022-08-05T08:20:47;7.00;;;3.80;;
24030;SDS011;12240;51.142;22.486;2022-08-05T08:23:29;7.25;;;3.60;;
24030;SDS011;12240;51.142;22.486;2022-08-05T08:26:18;4.88;;;3.72;;
24030;SDS011;12240;51.142;22.486;2022-08-05T08:28:56;11.13;;;4.30;;
24030;SDS011;12240;51.142;22.486;2022-08-05T08:31:46;4.82;;;4.00;;
24030;SDS011;12240;51.142;22.486;2022-08-05T08:34:16;6.72;;;3.88;;
24030;SDS011;12240;51.142;22.486;2022-08-05T08:36:59;5.63;;;3.70;;
24030;SDS011;12240;51.142;22.486;2022-08-05T08:39:31;11.55;;;3.80;;
24030;SDS011;12240;51.142;22.486;2022-08-05T08:42:04;6.95;;;3.90;;
24030;SDS011;12240;51.142;22.486;2022-08-05T08:44:55;8.30;;;3.67;;
24030;SDS011;12240;51.142;22.486;2022-08-05T08:47:44;6.05;;;3.63;;
24030;SDS011;12240;51.142;22.486;2022-08-05T08:50:38;5.93;;;3.88;;
24030;SDS011;12240;51.142;22.486;2022-08-05T08:53:33;6.40;;;3.97;;
24030;SDS011;12240;51.142;22.486;2022-08-05T08:56:11;5.22;;;3.70;;
24030;SDS011;12240;51.142;22.486;2022-08-05T08:58:39;6.78;;;3.75;;
24030;SDS011;12240;51.142;22.486;2022-08-05T09:01:14;10.23;;;4.15;;
24030;SDS011;12240;51.142;22.486;2022-08-05T09:06:26;9.05;;;3.65;;
24030;SDS011;12240;51.142;22.486;2022-08-05T09:08:58;11.20;;;4.30;;
24030;SDS011;12240;51.142;22.486;2022-08-05T09:11:29;6.00;;;3.38;;
24030;SDS011;12240;51.142;22.486;2022-08-05T09:14:21;9.85;;;4.32;;
24030;SDS011;12240;51.142;22.486;2022-08-05T09:17:10;4.85;;;3.70;;
24030;SDS011;12240;51.142;22.486;2022-08-05T09:19:59;6.10;;;3.88;;
24030;SDS011;12240;51.142;22.486;2022-08-05T09:25:47;5.82;;;3.53;;
24030;SDS011;12240;51.142;22.486;2022-08-05T09:28:33;5.45;;;3.00;;
24030;SDS011;12240;51.142;22.486;2022-08-05T09:34:00;5.68;;;4.00;;
24030;SDS011;12240;51.142;22.486;2022-08-05T09:36:40;8.13;;;4.03;;
24030;SDS011;12240;51.142;22.486;2022-08-05T09:39:22;6.40;;;4.00;;
24030;SDS011;12240;51.142;22.486;2022-08-05T09:42:15;10.10;;;4.20;;
24030;SDS011;12240;51.142;22.486;2022-08-05T09:44:54;6.47;;;3.67;;
24030;SDS011;12240;51.142;22.486;2022-08-05T09:47:43;4.82;;;3.70;;
24030;SDS011;12240;51.142;22.486;2022-08-05T09:50:32;6.15;;;3.90;;
24030;SDS011;12240;51.142;22.486;2022-08-05T09:53:10;7.40;;;4.18;;
24030;SDS011;12240;51.142;22.486;2022-08-05T09:55:54;14.63;;;3.90;;
24030;SDS011;12240;51.142;22.486;2022-08-05T09:58:39;8.45;;;4.03;;
24030;SDS011;12240;51.142;22.486;2022-08-05T10:01:10;5.50;;;3.58;;
24030;SDS011;12240;51.142;22.486;2022-08-05T10:06:56;6.32;;;3.75;;
24030;SDS011;12240;51.142;22.486;2022-08-05T10:09:25;8.80;;;4.53;;
24030;SDS011;12240;51.142;22.486;2022-08-05T10:12:08;5.95;;;4.47;;
24030;SDS011;12240;51.142;22.486;2022-08-05T10:18:06;6.50;;;4.07;;
24030;SDS011;12240;51.142;22.486;2022-08-05T10:21:03;10.07;;;4.20;;
24030;SDS011;12240;51.142;22.486;2022-08-05T10:23:42;10.88;;;3.92;;
24030;SDS011;12240;51.142;22.486;2022-08-05T10:26:26;5.28;;;4.22;;
24030;SDS011;12240;51.142;22.486;2022-08-05T10:28:59;9.85;;;4.07;;
24030;SDS011;12240;51.142;22.486;2022-08-05T10:31:28;12.02;;;4.03;;
24030;SDS011;12240;51.142;22.486;2022-08-05T10:34:18;6.32;;;3.97;;
24030;SDS011;12240;51.142;22.486;2022-08-05T10:36:56;9.18;;;4.00;;
24030;SDS011;12240;51.142;22.486;2022-08-05T10:39:29;9.35;;;4.35;;
24030;SDS011;12240;51.142;22.486;2022-08-05T10:42:23;4.70;;;3.88;;
24030;SDS011;12240;51.142;22.486;2022-08-05T10:45:00;9.02;;;4.15;;
24030;SDS011;12240;51.142;22.486;2022-08-05T10:47:50;7.35;;;3.67;;
24030;SDS011;12240;51.142;22.486;2022-08-05T10:51:01;11.00;;;4.05;;
24030;SDS011;12240;51.142;22.486;2022-08-05T10:53:58;8.93;;;4.30;;
24030;SDS011;12240;51.142;22.486;2022-08-05T10:56:51;6.60;;;3.70;;
24030;SDS011;12240;51.142;22.486;2022-08-05T10:59:27;6.18;;;3.83;;
24030;SDS011;12240;51.142;22.486;2022-08-05T11:02:17;7.90;;;4.30;;
24030;SDS011;12240;51.142;22.486;2022-08-05T11:05:05;10.90;;;4.50;;
24030;SDS011;12240;51.142;22.486;2022-08-05T11:07:55;4.95;;;3.97;;
24030;SDS011;12240;51.142;22.486;2022-08-05T11:10:36;7.90;;;4.53;;
24030;SDS011;12240;51.142;22.486;2022-08-05T11:16:24;5.50;;;4.15;;
24030;SDS011;12240;51.142;22.486;2022-08-05T11:19:26;7.63;;;3.97;;
24030;SDS011;12240;51.142;22.486;2022-08-05T11:25:35;6.82;;;4.20;;
24030;SDS011;12240;51.142;22.486;2022-08-05T11:28:35;4.85;;;3.67;;
24030;SDS011;12240;51.142;22.486;2022-08-05T11:33:37;4.68;;;3.80;;
24030;SDS011;12240;51.142;22.486;2022-08-05T11:36:41;7.78;;;3.90;;
24030;SDS011;12240;51.142;22.486;2022-08-05T11:42:30;5.33;;;4.07;;
24030;SDS011;12240;51.142;22.486;2022-08-05T11:45:06;6.15;;;4.22;;
24030;SDS011;12240;51.142;22.486;2022-08-05T11:47:53;6.72;;;3.72;;
24030;SDS011;12240;51.142;22.486;2022-08-05T11:50:21;6.55;;;3.63;;
24030;SDS011;12240;51.142;22.486;2022-08-05T11:52:51;4.93;;;3.93;;
24030;SDS011;12240;51.142;22.486;2022-08-05T11:55:24;5.38;;;3.42;;
24030;SDS011;12240;51.142;22.486;2022-08-05T11:58:02;6.60;;;3.67;;
24030;SDS011;12240;51.142;22.486;2022-08-05T12:00:37;9.48;;;4.20;;
24030;SDS011;12240;51.142;22.486;2022-08-05T12:03:19;7.13;;;4.00;;
24030;SDS011;12240;51.142;22.486;2022-08-05T12:05:58;5.47;;;3.97;;
24030;SDS011;12240;51.142;22.486;2022-08-05T12:08:45;5.57;;;3.65;;
24030;SDS011;12240;51.142;22.486;2022-08-05T12:11:20;7.05;;;4.10;;
24030;SDS011;12240;51.142;22.486;2022-08-05T12:13:58;6.18;;;4.00;;
24030;SDS011;12240;51.142;22.486;2022-08-05T12:16:31;8.80;;;4.10;;
24030;SDS011;12240;51.142;22.486;2022-08-05T12:19:13;9.40;;;4.05;;
24030;SDS011;12240;51.142;22.486;2022-08-05T12:22:04;7.20;;;3.67;;
24030;SDS011;12240;51.142;22.486;2022-08-05T12:24:38;5.68;;;3.78;;
24030;SDS011;12240;51.142;22.486;2022-08-05T12:30:05;9.25;;;3.92;;
24030;SDS011;12240;51.142;22.486;2022-08-05T12:32:45;5.20;;;3.95;;
24030;SDS011;12240;51.142;22.486;2022-08-05T12:38:05;9.35;;;3.80;;
24030;SDS011;12240;51.142;22.486;2022-08-05T12:40:36;9.60;;;4.03;;
24030;SDS011;12240;51.142;22.486;2022-08-05T12:43:10;7.45;;;3.75;;
24030;SDS011;12240;51.142;22.486;2022-08-05T12:45:53;4.97;;;4.07;;
24030;SDS011;12240;51.142;22.486;2022-08-05T12:48:22;8.27;;;3.70;;
24030;SDS011;12240;51.142;22.486;2022-08-05T12:51:11;4.97;;;3.22;;
24030;SDS011;12240;51.142;22.486;2022-08-05T12:54:06;7.60;;;3.83;;
24030;SDS011;12240;51.142;22.486;2022-08-05T12:56:50;8.48;;;3.45;;
24030;SDS011;12240;51.142;22.486;2022-08-05T12:59:22;6.07;;;3.80;;
24030;SDS011;12240;51.142;22.486;2022-08-05T13:02:17;10.88;;;4.10;;
24030;SDS011;12240;51.142;22.486;2022-08-05T13:04:56;4.70;;;3.58;;
24030;SDS011;12240;51.142;22.486;2022-08-05T13:07:25;6.68;;;3.83;;
24030;SDS011;12240;51.142;22.486;2022-08-05T13:10:14;7.20;;;3.60;;
24030;SDS011;12240;51.142;22.486;2022-08-05T13:12:46;7.80;;;3.80;;
24030;SDS011;12240;51.142;22.486;2022-08-05T13:15:30;11.98;;;4.20;;
24030;SDS011;12240;51.142;22.486;2022-08-05T13:18:17;5.90;;;3.70;;
24030;SDS011;12240;51.142;22.486;2022-08-05T13:20:47;9.00;;;4.30;;
24030;SDS011;12240;51.142;22.486;2022-08-05T13:23:16;4.95;;;3.88;;
24030;SDS011;12240;51.142;22.486;2022-08-05T13:25:49;6.10;;;3.53;;
24030;SDS011;12240;51.142;22.486;2022-08-05T13:28:26;17.00;;;3.88;;
24030;SDS011;12240;51.142;22.486;2022-08-05T13:30:54;8.00;;;3.60;;
24030;SDS011;12240;51.142;22.486;2022-08-05T13:33:23;7.07;;;3.63;;
24030;SDS011;12240;51.142;22.486;2022-08-05T13:36:11;11.30;;;4.00;;
24030;SDS011;12240;51.142;22.486;2022-08-05T13:38:40;5.35;;;3.80;;
24030;SDS011;12240;51.142;22.486;2022-08-05T13:41:09;5.30;;;3.92;;
24030;SDS011;12240;51.142;22.486;2022-08-05T13:43:38;7.20;;;3.95;;
24030;SDS011;12240;51.142;22.486;2022-08-05T13:46:23;5.25;;;3.80;;
24030;SDS011;12240;51.142;22.486;2022-08-05T13:49:12;8.88;;;3.95;;
24030;SDS011;12240;51.142;22.486;2022-08-05T13:51:40;5.63;;;3.75;;
24030;SDS011;12240;51.142;22.486;2022-08-05T13:54:13;5.68;;;3.67;;
24030;SDS011;12240;51.142;22.486;2022-08-05T13:56:51;5.28;;;3.72;;
24030;SDS011;12240;51.142;22.486;2022-08-05T13:59:20;5.50;;;3.97;;
24030;SDS011;12240;51.142;22.486;2022-08-05T14:01:53;8.93;;;3.63;;
24030;SDS011;12240;51.142;22.486;2022-08-05T14:04:30;8.50;;;3.72;;
24030;SDS011;12240;51.142;22.486;2022-08-05T14:07:32;6.50;;;4.07;;
24030;SDS011;12240;51.142;22.486;2022-08-05T14:10:26;12.30;;;3.97;;
24030;SDS011;12240;51.142;22.486;2022-08-05T14:15:26;12.18;;;3.72;;
24030;SDS011;12240;51.142;22.486;2022-08-05T14:18:15;7.70;;;3.57;;
24030;SDS011;12240;51.142;22.486;2022-08-05T14:20:50;9.52;;;3.83;;
24030;SDS011;12240;51.142;22.486;2022-08-05T14:23:21;11.52;;;3.90;;
24030;SDS011;12240;51.142;22.486;2022-08-05T14:25:53;4.97;;;3.92;;
24030;SDS011;12240;51.142;22.486;2022-08-05T14:28:28;9.98;;;3.92;;
24030;SDS011;12240;51.142;22.486;2022-08-05T14:30:57;6.80;;;3.95;;
24030;SDS011;12240;51.142;22.486;2022-08-05T14:33:27;10.35;;;4.68;;
24030;SDS011;12240;51.142;22.486;2022-08-05T14:36:17;5.90;;;4.23;;
24030;SDS011;12240;51.142;22.486;2022-08-05T14:41:17;7.20;;;3.90;;
24030;SDS011;12240;51.142;22.486;2022-08-05T14:43:45;6.95;;;3.63;;
24030;SDS011;12240;51.142;22.486;2022-08-05T14:46:31;6.57;;;3.70;;
24030;SDS011;12240;51.142;22.486;2022-08-05T14:49:02;4.75;;;3.90;;
24030;SDS011;12240;51.142;22.486;2022-08-05T14:51:34;7.82;;;3.65;;
24030;SDS011;12240;51.142;22.486;2022-08-05T14:54:04;4.77;;;3.57;;
24030;SDS011;12240;51.142;22.486;2022-08-05T14:56:54;6.15;;;3.63;;
24030;SDS011;12240;51.142;22.486;2022-08-05T14:59:22;7.45;;;3.72;;
24030;SDS011;12240;51.142;22.486;2022-08-05T15:02:02;6.53;;;3.70;;
24030;SDS011;12240;51.142;22.486;2022-08-05T15:04:51;9.85;;;3.70;;
24030;SDS011;12240;51.142;22.486;2022-08-05T15:07:19;5.90;;;3.38;;
24030;SDS011;12240;51.142;22.486;2022-08-05T15:10:07;6.63;;;3.85;;
24030;SDS011;12240;51.142;22.486;2022-08-05T15:12:36;6.45;;;3.90;;
24030;SDS011;12240;51.142;22.486;2022-08-05T15:15:25;7.22;;;3.67;;
24030;SDS011;12240;51.142;22.486;2022-08-05T15:18:14;5.45;;;4.15;;
24030;SDS011;12240;51.142;22.486;2022-08-05T15:20:44;8.68;;;4.05;;
24030;SDS011;12240;51.142;22.486;2022-08-05T15:23:13;8.13;;;4.03;;
24030;SDS011;12240;51.142;22.486;2022-08-05T15:25:42;4.07;;;3.42;;
24030;SDS011;12240;51.142;22.486;2022-08-05T15:28:21;5.57;;;3.65;;
24030;SDS011;12240;51.142;22.486;2022-08-05T15:30:53;5.60;;;4.13;;
24030;SDS011;12240;51.142;22.486;2022-08-05T15:33:22;6.50;;;4.03;;
24030;SDS011;12240;51.142;22.486;2022-08-05T15:36:11;9.73;;;3.92;;
24030;SDS011;12240;51.142;22.486;2022-08-05T15:38:51;6.65;;;4.18;;
24030;SDS011;12240;51.142;22.486;2022-08-05T15:41:40;8.38;;;3.80;;
24030;SDS011;12240;51.142;22.486;2022-08-05T15:44:25;7.47;;;4.30;;
24030;SDS011;12240;51.142;22.486;2022-08-05T15:46:56;11.35;;;4.18;;
24030;SDS011;12240;51.142;22.486;2022-08-05T15:49:27;5.30;;;4.07;;
24030;SDS011;12240;51.142;22.486;2022-08-05T15:52:18;8.60;;;3.85;;
24030;SDS011;12240;51.142;22.486;2022-08-05T15:55:08;9.65;;;3.67;;
24030;SDS011;12240;51.142;22.486;2022-08-05T15:57:42;5.88;;;3.88;;
24030;SDS011;12240;51.142;22.486;2022-08-05T16:00:15;6.38;;;3.28;;
24030;SDS011;12240;51.142;22.486;2022-08-05T16:03:04;8.90;;;3.55;;
24030;SDS011;12240;51.142;22.486;2022-08-05T16:05:33;8.75;;;4.00;;
24030;SDS011;12240;51.142;22.486;2022-08-05T16:08:05;8.68;;;3.47;;
24030;SDS011;12240;51.142;22.486;2022-08-05T16:10:34;6.30;;;3.97;;
24030;SDS011;12240;51.142;22.486;2022-08-05T16:13:02;5.25;;;3.75;;
24030;SDS011;12240;51.142;22.486;2022-08-05T16:15:30;8.20;;;3.63;;
24030;SDS011;12240;51.142;22.486;2022-08-05T16:17:59;12.38;;;3.80;;
24030;SDS011;12240;51.142;22.486;2022-08-05T16:20:30;10.70;;;4.18;;
24030;SDS011;12240;51.142;22.486;2022-08-05T16:22:58;8.27;;;3.95;;
24030;SDS011;12240;51.142;22.486;2022-08-05T16:25:28;6.68;;;3.80;;
24030;SDS011;12240;51.142;22.486;2022-08-05T16:28:02;17.23;;;4.20;;